createdAt,value
2023-01-22T00:01:21.047Z,100.00
2023-01-22T00:03:49.673Z,100.00
2023-01-22T00:06:17.424Z,100.00
2023-01-22T00:08:46.646Z,100.00
2023-01-22T00:11:15.840Z,100.00
2023-01-22T00:13:43.968Z,100.00
2023-01-22T00:16:16.624Z,100.00
2023-01-22T00:18:44.630Z,100.00
2023-01-22T00:21:13.557Z,100.00
2023-01-22T00:23:41.655Z,100.00
2023-01-22T00:26:15.729Z,100.00
2023-01-22T00:28:45.809Z,100.00
2023-01-22T00:31:16.093Z,100.00
2023-01-22T00:33:45.512Z,100.00
2023-01-22T00:36:19.135Z,99.71
2023-01-22T00:38:50.412Z,99.88
2023-01-22T00:41:20.225Z,100.00
2023-01-22T00:43:50.028Z,100.00
2023-01-22T00:46:18.884Z,99.72
2023-01-22T00:48:49.475Z,99.80
2023-01-22T00:51:17.566Z,100.00
2023-01-22T00:53:45.950Z,100.00
2023-01-22T00:56:15.277Z,100.00
2023-01-22T00:58:43.732Z,100.00
2023-01-22T01:01:14.699Z,100.00
2023-01-22T01:03:43.156Z,100.00
2023-01-22T01:06:19.778Z,100.00
2023-01-22T01:08:49.364Z,100.00
2023-01-22T01:11:23.144Z,100.00
2023-01-22T01:13:52.837Z,100.00
2023-01-22T01:16:26.815Z,100.00
2023-01-22T01:19:05.515Z,100.00
2023-01-22T01:21:35.141Z,100.00
2023-01-22T01:24:03.840Z,100.00
2023-01-22T01:26:33.505Z,100.00
2023-01-22T01:29:04.882Z,100.00
2023-01-22T01:31:32.851Z,100.00
2023-01-22T01:34:01.152Z,100.00
2023-01-22T01:36:47.739Z,100.00
2023-01-22T01:39:16.798Z,100.00
2023-01-22T01:41:44.773Z,100.00
2023-01-22T01:44:19.706Z,100.00
2023-01-22T01:47:28.414Z,99.06
2023-01-22T01:49:56.397Z,99.32
2023-01-22T01:52:24.660Z,98.92
2023-01-22T01:54:56.535Z,99.12
2023-01-22T01:57:29.773Z,99.30
2023-01-22T01:59:59.244Z,99.29
2023-01-22T02:02:27.045Z,99.23
2023-01-22T02:04:56.283Z,99.34
2023-01-22T02:07:24.246Z,99.69
2023-01-22T02:09:52.228Z,99.78
2023-01-22T02:12:19.913Z,100.00
2023-01-22T02:14:50.700Z,99.25
2023-01-22T02:17:22.782Z,99.21
2023-01-22T02:19:52.428Z,98.83
2023-01-22T02:22:23.951Z,98.59
2023-01-22T02:24:51.968Z,98.28
2023-01-22T02:27:19.933Z,98.51
2023-01-22T02:29:49.619Z,98.54
2023-01-22T02:32:18.164Z,98.64
2023-01-22T02:34:46.747Z,98.78
2023-01-22T02:37:14.477Z,98.31
2023-01-22T02:39:43.065Z,98.03
2023-01-22T02:42:11.130Z,98.35
2023-01-22T02:44:42.178Z,98.86
2023-01-22T02:47:10.348Z,98.93
2023-01-22T02:49:38.525Z,99.04
2023-01-22T02:52:06.826Z,98.41
2023-01-22T02:54:35.839Z,98.27
2023-01-22T02:57:03.690Z,98.06
2023-01-22T02:59:31.627Z,96.84
2023-01-22T03:01:59.806Z,96.59
2023-01-22T03:04:29.325Z,96.76
2023-01-22T03:06:57.253Z,95.88
2023-01-22T03:09:28.556Z,95.59
2023-01-22T03:11:56.598Z,96.38
2023-01-22T03:14:47.707Z,96.66
2023-01-22T03:17:36.141Z,96.47
2023-01-22T03:20:23.846Z,95.69
2023-01-22T03:22:51.467Z,96.03
2023-01-22T03:25:20.700Z,95.83
2023-01-22T03:28:07.822Z,95.51
2023-01-22T03:30:36.834Z,95.52
2023-01-22T03:33:04.440Z,95.84
2023-01-22T03:35:32.552Z,96.31
2023-01-22T03:38:14.979Z,96.10
2023-01-22T03:40:43.363Z,95.88
2023-01-22T03:43:11.433Z,96.22
2023-01-22T03:45:39.497Z,96.13
2023-01-22T03:48:11.788Z,96.03
2023-01-22T03:50:41.895Z,95.46
2023-01-22T03:53:09.627Z,95.14
2023-01-22T03:55:37.703Z,95.18
2023-01-22T03:58:05.659Z,94.79
2023-01-22T04:00:33.817Z,94.69
2023-01-22T04:03:04.717Z,93.88
2023-01-22T04:05:38.619Z,93.43
2023-01-22T04:08:06.783Z,93.71
2023-01-22T04:10:36.121Z,94.06
2023-01-22T04:13:04.315Z,94.55
2023-01-22T04:15:32.996Z,94.54
2023-01-22T04:18:05.768Z,94.50
2023-01-22T04:20:48.720Z,94.29
2023-01-22T04:23:33.108Z,94.88
2023-01-22T04:26:02.970Z,95.65
2023-01-22T04:28:31.155Z,96.24
2023-01-22T04:31:00.587Z,95.96
2023-01-22T04:33:51.057Z,95.65
2023-01-22T04:36:28.997Z,94.94
2023-01-22T04:38:57.035Z,94.76
2023-01-22T04:41:25.056Z,92.92
2023-01-22T04:43:53.685Z,93.50
2023-01-22T04:46:24.749Z,94.64
2023-01-22T04:48:53.040Z,95.11
2023-01-22T04:51:20.990Z,95.46
2023-01-22T04:53:48.687Z,95.45
2023-01-22T04:56:18.381Z,95.40
2023-01-22T04:58:46.769Z,94.80
2023-01-22T05:01:15.994Z,94.84
2023-01-22T05:03:44.570Z,95.48
2023-01-22T05:06:12.431Z,95.76
2023-01-22T05:08:40.278Z,94.99
2023-01-22T05:11:09.914Z,95.90
2023-01-22T05:13:49.785Z,95.93
2023-01-22T05:16:18.612Z,96.48
2023-01-22T05:18:46.130Z,96.42
2023-01-22T05:21:14.009Z,95.80
2023-01-22T05:23:41.629Z,96.00
2023-01-22T05:30:16.231Z,96.28
2023-01-22T05:32:58.612Z,95.83
2023-01-22T05:35:28.066Z,95.68
2023-01-22T05:37:57.190Z,95.71
2023-01-22T05:40:25.712Z,95.99
2023-01-22T05:42:54.122Z,95.52
2023-01-22T05:45:22.998Z,94.97
2023-01-22T05:48:20.016Z,95.06
2023-01-22T05:50:56.568Z,94.96
2023-01-22T05:53:24.345Z,95.10
2023-01-22T05:56:19.756Z,95.36
2023-01-22T06:02:39.156Z,95.58
2023-01-22T06:05:35.594Z,96.01
2023-01-22T06:08:07.392Z,95.87
2023-01-22T06:10:42.845Z,95.29
2023-01-22T06:13:10.814Z,93.75
2023-01-22T06:15:39.454Z,93.73
2023-01-22T06:18:30.037Z,94.41
2023-01-22T06:21:03.515Z,94.79
2023-01-22T06:23:31.989Z,94.76
2023-01-22T06:26:28.312Z,95.29
2023-01-22T06:29:09.619Z,94.90
2023-01-22T06:32:28.646Z,94.89
2023-01-22T06:35:55.316Z,94.17
2023-01-22T06:38:24.607Z,94.30
2023-01-22T06:40:54.259Z,94.86
2023-01-22T06:43:24.069Z,94.53
2023-01-22T06:45:52.725Z,94.79
2023-01-22T06:48:24.400Z,94.36
2023-01-22T06:50:52.054Z,93.81
2023-01-22T06:53:19.961Z,93.97
2023-01-22T06:56:09.029Z,93.80
2023-01-22T06:58:46.773Z,93.41
2023-01-22T07:01:49.478Z,93.99
2023-01-22T07:04:20.194Z,94.51
2023-01-22T07:07:00.097Z,94.29
2023-01-22T07:09:28.154Z,94.03
2023-01-22T07:11:57.466Z,93.98
2023-01-22T07:14:36.402Z,93.75
2023-01-22T07:17:05.138Z,94.68
2023-01-22T07:19:33.047Z,94.90
2023-01-22T07:22:00.603Z,94.71
2023-01-22T07:24:31.646Z,94.56
2023-01-22T07:27:21.098Z,94.56
2023-01-22T07:30:30.245Z,94.62
2023-01-22T07:33:23.829Z,94.64
2023-01-22T07:36:12.888Z,93.83
2023-01-22T07:39:08.469Z,94.96
2023-01-22T07:41:36.429Z,94.62
2023-01-22T07:44:12.138Z,93.73
2023-01-22T07:46:40.366Z,94.22
2023-01-22T07:49:07.975Z,94.17
2023-01-22T07:51:36.334Z,93.34
2023-01-22T07:54:04.095Z,93.22
2023-01-22T07:56:31.998Z,92.92
2023-01-22T07:58:59.908Z,92.89
2023-01-22T08:01:27.936Z,91.91
2023-01-22T08:03:57.276Z,91.20
2023-01-22T08:06:25.122Z,91.60
2023-01-22T08:08:52.751Z,91.44
2023-01-22T08:11:20.519Z,91.50
2023-01-22T08:13:48.109Z,92.23
2023-01-22T08:16:15.961Z,92.19
2023-01-22T08:18:43.691Z,92.18
2023-01-22T08:21:11.727Z,92.23
2023-01-22T08:23:39.328Z,90.94
2023-01-22T08:26:07.093Z,87.42
2023-01-22T08:28:34.631Z,86.33
2023-01-22T08:31:03.966Z,86.03
2023-01-22T08:33:49.941Z,85.92
2023-01-22T08:36:17.809Z,86.16
2023-01-22T08:38:45.223Z,86.42
2023-01-22T08:41:13.659Z,87.07
2023-01-22T08:43:41.182Z,86.45
2023-01-22T08:46:09.095Z,86.05
2023-01-22T08:48:36.657Z,86.93
2023-01-22T08:51:04.710Z,87.59
2023-01-22T08:53:32.262Z,87.66
2023-01-22T08:56:01.743Z,87.55
2023-01-22T08:58:29.224Z,86.93
2023-01-22T09:00:57.285Z,87.35
2023-01-22T09:03:25.026Z,87.93
2023-01-22T09:05:52.937Z,87.93
2023-01-22T09:08:21.649Z,88.49
2023-01-22T09:10:49.555Z,88.40
2023-01-22T09:13:17.112Z,88.61
2023-01-22T09:15:44.910Z,88.44
2023-01-22T09:18:12.402Z,88.00
2023-01-22T09:20:40.183Z,88.91
2023-01-22T09:23:07.911Z,88.44
2023-01-22T09:25:35.776Z,87.67
2023-01-22T09:28:07.246Z,87.50
2023-01-22T09:30:36.294Z,86.79
2023-01-22T09:33:03.838Z,87.96
2023-01-22T09:35:31.696Z,88.18
2023-01-22T09:37:59.243Z,87.44
2023-01-22T09:40:44.541Z,88.54
2023-01-22T09:43:45.769Z,88.94
2023-01-22T09:46:25.229Z,88.61
2023-01-22T09:49:02.575Z,88.20
2023-01-22T09:51:30.737Z,89.06
2023-01-22T09:54:01.232Z,89.13
2023-01-22T09:56:59.217Z,88.25
2023-01-22T09:59:47.817Z,88.68
2023-01-22T10:02:31.541Z,89.06
2023-01-22T10:05:39.299Z,89.18
2023-01-22T10:08:23.032Z,89.67
2023-01-22T10:10:52.178Z,89.12
2023-01-22T10:13:34.506Z,88.42
2023-01-22T10:16:03.042Z,88.81
2023-01-22T10:19:12.451Z,88.18
2023-01-22T10:21:53.786Z,89.28
2023-01-22T10:24:22.054Z,89.89
2023-01-22T10:26:55.475Z,89.36
2023-01-22T10:29:34.573Z,88.19
2023-01-22T10:32:15.617Z,88.13
2023-01-22T10:34:43.813Z,87.42
2023-01-22T10:37:18.058Z,86.70
2023-01-22T10:39:50.865Z,85.69
2023-01-22T10:42:23.255Z,86.72
2023-01-22T10:45:09.668Z,86.07
2023-01-22T10:47:37.526Z,86.59
2023-01-22T10:50:15.097Z,87.08
2023-01-22T10:52:50.304Z,88.08
2023-01-22T10:55:25.147Z,88.25
2023-01-22T10:58:07.689Z,88.19
2023-01-22T11:00:51.539Z,87.00
2023-01-22T11:03:28.783Z,87.31
2023-01-22T11:06:21.228Z,86.46
2023-01-22T11:09:07.447Z,86.12
2023-01-22T11:11:47.428Z,86.64
2023-01-22T11:14:35.514Z,86.67
2023-01-22T11:17:29.444Z,85.55
2023-01-22T11:20:11.723Z,83.83
2023-01-22T11:22:43.689Z,82.98
2023-01-22T11:25:12.536Z,82.09
2023-01-22T11:28:12.450Z,82.46
2023-01-22T11:31:09.050Z,82.12
2023-01-22T11:34:18.874Z,82.90
2023-01-22T11:37:11.622Z,83.64
2023-01-22T11:39:47.600Z,82.99
2023-01-22T11:42:45.547Z,83.92
2023-01-22T11:45:47.605Z,83.51
2023-01-22T11:48:48.674Z,83.22
2023-01-22T11:51:39.841Z,84.00
2023-01-22T11:54:23.052Z,84.07
2023-01-22T11:57:25.541Z,84.43
2023-01-22T12:00:43.276Z,84.59
2023-01-22T12:03:51.770Z,85.00
2023-01-22T12:06:43.662Z,85.89
2023-01-22T12:09:17.877Z,85.23
2023-01-22T12:12:22.956Z,86.10
2023-01-22T12:15:19.217Z,84.72
2023-01-22T12:18:01.870Z,85.54
2023-01-22T12:21:07.997Z,86.65
2023-01-22T12:23:57.050Z,84.82
2023-01-22T12:26:32.024Z,84.61
2023-01-22T12:29:39.190Z,84.52
2023-01-22T12:32:11.040Z,84.92
2023-01-22T12:34:50.190Z,84.50
2023-01-22T12:37:23.429Z,85.15
2023-01-22T12:40:30.029Z,84.84
2023-01-22T12:43:07.014Z,83.06
2023-01-22T12:46:12.242Z,85.65
2023-01-22T12:49:10.960Z,86.48
2023-01-22T12:51:49.866Z,87.09
2023-01-22T12:54:36.519Z,85.97
2023-01-22T12:57:26.641Z,87.04
2023-01-22T12:59:58.674Z,86.15
2023-01-22T13:02:35.826Z,85.40
2023-01-22T13:05:33.059Z,84.83
2023-01-22T13:08:20.742Z,85.12
2023-01-22T13:11:06.515Z,85.13
2023-01-22T13:14:14.825Z,86.50
2023-01-22T13:16:59.619Z,86.47
2023-01-22T13:19:36.110Z,86.14
2023-01-22T13:22:04.777Z,88.10
2023-01-22T13:24:33.061Z,88.17
2023-01-22T13:27:03.400Z,87.70
2023-01-22T13:29:37.704Z,87.16
2023-01-22T13:32:17.472Z,86.76
2023-01-22T13:34:45.265Z,86.31
2023-01-22T13:37:27.644Z,86.65
2023-01-22T13:39:55.167Z,85.56
2023-01-22T13:42:27.389Z,86.02
2023-01-22T13:44:56.793Z,86.03
2023-01-22T13:47:34.428Z,85.21
2023-01-22T13:50:03.720Z,85.85
2023-01-22T13:52:33.724Z,85.67
2023-01-22T13:55:06.954Z,86.56
2023-01-22T13:57:34.821Z,86.54
2023-01-22T14:00:05.224Z,86.99
2023-01-22T14:02:36.199Z,86.50
2023-01-22T14:05:04.738Z,86.22
2023-01-22T14:07:38.459Z,87.59
2023-01-22T14:10:24.245Z,88.00
2023-01-22T14:13:06.084Z,88.11
2023-01-22T14:16:13.377Z,87.25
2023-01-22T14:18:50.442Z,87.74
2023-01-22T14:21:18.079Z,87.53
2023-01-22T14:23:48.987Z,87.15
2023-01-22T14:26:16.812Z,87.84
2023-01-22T14:29:03.459Z,88.00
2023-01-22T14:31:31.132Z,87.54
2023-01-22T14:33:58.963Z,88.05
2023-01-22T14:36:26.709Z,88.02
2023-01-22T14:38:55.488Z,87.67
2023-01-22T14:41:23.409Z,87.54
2023-01-22T14:43:51.184Z,87.56
2023-01-22T14:46:18.877Z,87.95
2023-01-22T14:48:47.243Z,88.60
2023-01-22T14:51:14.871Z,88.91
2023-01-22T14:53:43.735Z,88.97
2023-01-22T14:56:11.197Z,88.95
2023-01-22T14:58:39.311Z,89.07
2023-01-22T15:01:17.970Z,88.19
2023-01-22T15:03:47.037Z,89.11
2023-01-22T15:06:14.825Z,89.70
2023-01-22T15:08:42.790Z,90.35
2023-01-22T15:11:10.429Z,90.36
2023-01-22T15:13:38.463Z,90.42
2023-01-22T15:16:09.541Z,90.50
2023-01-22T15:18:39.880Z,91.03
2023-01-22T15:21:08.374Z,90.68
2023-01-22T15:23:36.667Z,90.27
2023-01-22T15:26:09.964Z,89.92
2023-01-22T15:28:38.574Z,90.11
2023-01-22T15:31:08.086Z,90.62
2023-01-22T15:33:37.533Z,90.08
2023-01-22T15:36:07.117Z,90.54
2023-01-22T15:38:35.460Z,90.84
2023-01-22T15:42:09.609Z,91.00
2023-01-22T15:44:39.539Z,91.87
2023-01-22T15:47:08.366Z,92.15
2023-01-22T15:49:37.052Z,92.23
2023-01-22T15:52:05.197Z,92.05
2023-01-22T15:54:33.571Z,93.11
2023-01-22T15:57:01.758Z,92.77
2023-01-22T15:59:30.513Z,92.29
2023-01-22T16:01:58.255Z,93.16
2023-01-22T16:04:26.347Z,93.46
2023-01-22T16:06:53.994Z,93.59
2023-01-22T16:09:22.112Z,93.96
2023-01-22T16:11:57.450Z,94.69
2023-01-22T16:14:25.626Z,95.73
2023-01-22T16:16:54.627Z,95.70
2023-01-22T16:19:22.845Z,95.33
2023-01-22T16:21:52.415Z,94.67
2023-01-22T16:24:20.537Z,94.80
2023-01-22T16:26:48.138Z,95.14
2023-01-22T16:29:16.366Z,95.26
2023-01-22T16:31:44.151Z,95.32
2023-01-22T16:34:19.725Z,96.05
2023-01-22T16:36:48.868Z,95.42
2023-01-22T16:39:21.966Z,95.47
2023-01-22T16:41:51.883Z,95.99
2023-01-22T16:44:27.371Z,95.81
2023-01-22T16:46:57.857Z,95.71
2023-01-22T16:49:32.491Z,95.97
2023-01-22T16:52:21.080Z,95.63
2023-01-22T16:54:51.144Z,96.32
2023-01-22T16:57:20.529Z,97.25
2023-01-22T16:59:54.686Z,97.06
2023-01-22T17:02:26.923Z,96.63
2023-01-22T17:04:57.259Z,96.92
2023-01-22T17:07:33.724Z,97.05
2023-01-22T17:10:03.124Z,97.54
2023-01-22T17:12:31.644Z,97.70
2023-01-22T17:15:00.133Z,98.27
2023-01-22T17:17:28.848Z,98.60
2023-01-22T17:19:57.116Z,99.27
2023-01-22T17:22:25.595Z,99.24
2023-01-22T17:24:55.412Z,99.74
2023-01-22T17:27:25.818Z,100.00
2023-01-22T17:29:54.035Z,100.00
2023-01-22T17:32:25.545Z,100.00
2023-01-22T17:34:56.767Z,100.00
2023-01-22T17:37:27.661Z,100.00
2023-01-22T17:40:04.443Z,100.00
2023-01-22T17:42:32.395Z,100.00
2023-01-22T17:45:00.353Z,100.00
2023-01-22T17:47:28.368Z,100.00
2023-01-22T17:49:56.352Z,100.00
2023-01-22T17:52:23.965Z,100.00
2023-01-22T17:54:53.477Z,100.00
2023-01-22T17:57:21.242Z,100.00
2023-01-22T17:59:49.512Z,100.00
2023-01-22T18:02:17.163Z,100.00
2023-01-22T18:04:46.670Z,100.00
2023-01-22T18:07:14.371Z,100.00
2023-01-22T18:09:46.595Z,100.00
2023-01-22T18:12:43.795Z,100.00
2023-01-22T18:15:15.455Z,100.00
2023-01-22T18:17:47.965Z,100.00
2023-01-22T18:20:17.489Z,100.00
2023-01-22T18:22:45.133Z,100.00
2023-01-22T18:25:13.020Z,100.00
2023-01-22T18:27:40.830Z,100.00
2023-01-22T18:30:11.807Z,100.00
2023-01-22T18:32:40.082Z,100.00
2023-01-22T18:35:08.865Z,100.00
2023-01-22T18:37:38.100Z,100.00
2023-01-22T18:40:06.957Z,100.00
2023-01-22T18:42:34.587Z,100.00
2023-01-22T18:45:04.281Z,100.00
2023-01-22T18:47:34.702Z,100.00
2023-01-22T18:50:02.557Z,100.00
2023-01-22T18:52:30.031Z,100.00
2023-01-22T18:54:58.173Z,100.00
2023-01-22T18:57:47.438Z,100.00
2023-01-22T19:00:15.618Z,100.00
2023-01-22T19:02:43.383Z,100.00
2023-01-22T19:05:11.375Z,100.00
2023-01-22T19:07:39.029Z,100.00
2023-01-22T19:10:08.769Z,100.00
2023-01-22T19:12:36.211Z,100.00
2023-01-22T19:15:04.383Z,100.00
2023-01-22T19:17:31.939Z,100.00
2023-01-22T19:20:01.492Z,100.00
2023-01-22T19:22:30.143Z,100.00
2023-01-22T19:24:58.115Z,100.00
2023-01-22T19:27:25.703Z,100.00
2023-01-22T19:29:54.119Z,100.00
2023-01-22T19:32:27.821Z,100.00
2023-01-22T19:34:56.452Z,100.00
2023-01-22T19:37:25.255Z,100.00
2023-01-22T19:39:53.375Z,100.00
2023-01-22T19:42:20.946Z,100.00
2023-01-22T19:44:48.801Z,100.00
2023-01-22T19:47:17.595Z,100.00
2023-01-22T19:49:45.722Z,100.00
2023-01-22T19:52:16.476Z,100.00
2023-01-22T19:54:47.955Z,100.00
2023-01-22T19:57:15.920Z,100.00
2023-01-22T19:59:43.991Z,100.00
2023-01-22T20:02:15.216Z,100.00
2023-01-22T20:04:43.340Z,100.00
2023-01-22T20:07:11.162Z,100.00
2023-01-22T20:09:39.063Z,100.00
2023-01-22T20:12:08.757Z,100.00
2023-01-22T20:14:41.370Z,100.00
2023-01-22T20:17:09.514Z,100.00
2023-01-22T20:19:39.465Z,100.00
2023-01-22T20:22:07.346Z,100.00
2023-01-22T20:24:37.538Z,100.00
2023-01-22T20:27:05.043Z,100.00
2023-01-22T20:29:33.013Z,100.00
2023-01-22T20:32:00.790Z,100.00
2023-01-22T20:34:28.767Z,100.00
2023-01-22T20:36:57.053Z,100.00
2023-01-22T20:39:25.426Z,100.00
2023-01-22T20:41:54.858Z,100.00
2023-01-22T20:44:23.173Z,100.00
2023-01-22T20:46:51.601Z,100.00
2023-01-22T20:49:39.731Z,100.00
2023-01-22T20:52:07.758Z,100.00
2023-01-22T20:54:42.810Z,100.00
2023-01-22T20:57:19.712Z,100.00
2023-01-22T20:59:48.039Z,100.00
2023-01-22T21:02:18.113Z,100.00
2023-01-22T21:04:50.835Z,100.00
2023-01-22T21:07:20.470Z,100.00
2023-01-22T21:09:50.062Z,100.00
2023-01-22T21:12:17.815Z,100.00
2023-01-22T21:14:46.298Z,100.00
2023-01-22T21:17:13.940Z,100.00
2023-01-22T21:19:44.169Z,100.00
2023-01-22T21:22:11.944Z,100.00
2023-01-22T21:24:40.036Z,100.00
2023-01-22T21:27:07.610Z,100.00
2023-01-22T21:29:35.779Z,100.00
2023-01-22T21:32:03.624Z,100.00
2023-01-22T21:34:33.496Z,100.00
2023-01-22T21:37:01.708Z,100.00
2023-01-22T21:39:30.755Z,100.00
2023-01-22T21:42:18.108Z,100.00
2023-01-22T21:45:05.286Z,100.00
2023-01-22T21:47:33.165Z,100.00
2023-01-22T21:50:01.055Z,100.00
2023-01-22T21:52:28.923Z,100.00
2023-01-22T21:54:57.044Z,100.00
2023-01-22T21:57:45.377Z,100.00
2023-01-22T22:00:25.267Z,100.00
2023-01-22T22:03:07.454Z,100.00
2023-01-22T22:06:13.713Z,100.00
2023-01-22T22:08:43.646Z,100.00
2023-01-22T22:11:14.164Z,100.00
2023-01-22T22:13:45.799Z,100.00
2023-01-22T22:16:20.582Z,100.00
2023-01-22T22:18:48.895Z,100.00
2023-01-22T22:21:39.969Z,100.00
2023-01-22T22:24:10.792Z,100.00
2023-01-22T22:26:41.929Z,100.00
2023-01-22T22:29:10.800Z,100.00
2023-01-22T22:31:40.447Z,100.00
2023-01-22T22:34:08.057Z,100.00
2023-01-22T22:36:36.263Z,100.00
2023-01-22T22:39:07.779Z,100.00
2023-01-22T22:41:40.058Z,100.00
2023-01-22T22:44:13.787Z,100.00
2023-01-22T22:46:48.498Z,100.00
2023-01-22T22:49:17.055Z,100.00
2023-01-22T22:51:46.432Z,100.00
2023-01-22T22:54:18.850Z,100.00
2023-01-22T22:56:48.740Z,100.00
2023-01-22T22:59:19.742Z,100.00
2023-01-22T23:01:49.703Z,100.00
2023-01-22T23:04:17.638Z,100.00
2023-01-22T23:06:46.755Z,100.00
2023-01-22T23:09:20.757Z,100.00
2023-01-22T23:11:52.049Z,100.00
2023-01-22T23:14:19.958Z,100.00
2023-01-22T23:16:48.482Z,100.00
2023-01-22T23:19:20.519Z,100.00
2023-01-22T23:21:56.210Z,100.00
2023-01-22T23:24:24.098Z,100.00
2023-01-22T23:26:52.682Z,100.00
2023-01-22T23:29:24.192Z,100.00
2023-01-22T23:31:53.028Z,100.00
2023-01-22T23:34:22.783Z,100.00
2023-01-22T23:36:51.680Z,100.00
2023-01-22T23:39:21.465Z,100.00
2023-01-22T23:41:49.589Z,100.00
2023-01-22T23:44:17.522Z,100.00
2023-01-22T23:46:45.789Z,100.00
2023-01-22T23:49:13.720Z,100.00
2023-01-22T23:51:43.685Z,100.00
2023-01-22T23:54:11.233Z,100.00
2023-01-22T23:56:39.107Z,100.00
2023-01-22T23:59:06.917Z,100.00
